createdAt,value
2018-07-23T00:00:13.486Z,68.84
2018-07-23T00:02:45.169Z,69.12
2018-07-23T00:05:17.034Z,68.66
2018-07-23T00:07:48.758Z,68.09
2018-07-23T00:10:21.491Z,68.69
2018-07-23T00:12:53.168Z,69.64
2018-07-23T00:15:24.975Z,69.68
2018-07-23T00:17:56.728Z,68.89
2018-07-23T00:20:28.501Z,68.49
2018-07-23T00:23:00.259Z,66.82
2018-07-23T00:25:32.053Z,68.05
2018-07-23T00:28:03.780Z,66.76
2018-07-23T00:30:35.538Z,64.87
2018-07-23T00:33:07.083Z,66.59
2018-07-23T00:35:38.742Z,66.76
2018-07-23T00:38:10.392Z,68.06
2018-07-23T00:40:42.065Z,67.55
2018-07-23T00:43:14.173Z,67.44
2018-07-23T00:45:45.753Z,68.82
2018-07-23T00:48:17.673Z,68.50
2018-07-23T00:50:49.300Z,66.10
2018-07-23T00:53:21.126Z,66.61
2018-07-23T00:55:53.082Z,67.53
2018-07-23T00:58:24.884Z,67.61
2018-07-23T01:00:56.560Z,68.64
2018-07-23T01:03:28.373Z,67.52
2018-07-23T01:06:00.096Z,64.33
2018-07-23T01:08:31.968Z,66.37
2018-07-23T01:11:05.792Z,66.17
2018-07-23T01:13:37.778Z,66.18
2018-07-23T01:16:09.544Z,65.54
2018-07-23T01:18:41.300Z,64.44
2018-07-23T01:21:13.063Z,65.09
2018-07-23T01:23:44.914Z,63.13
2018-07-23T01:26:16.699Z,64.44
2018-07-23T01:28:48.516Z,66.65
2018-07-23T01:31:20.150Z,65.65
2018-07-23T01:33:51.878Z,66.60
2018-07-23T01:36:23.519Z,65.42
2018-07-23T01:38:55.291Z,66.68
2018-07-23T01:41:27.075Z,67.18
2018-07-23T01:43:58.844Z,65.84
2018-07-23T01:46:30.380Z,66.14
2018-07-23T01:49:02.221Z,67.76
2018-07-23T01:51:33.877Z,67.67
2018-07-23T01:54:05.666Z,67.44
2018-07-23T01:56:37.423Z,68.08
2018-07-23T01:59:09.149Z,68.65
2018-07-23T02:01:40.748Z,67.71
2018-07-23T02:04:12.383Z,69.40
2018-07-23T02:06:44.213Z,69.32
2018-07-23T02:09:16.211Z,67.96
2018-07-23T02:11:48.980Z,69.64
2018-07-23T02:14:20.780Z,69.14
2018-07-23T02:16:52.773Z,69.36
2018-07-23T02:19:24.366Z,69.69
2018-07-23T02:21:56.164Z,67.41
2018-07-23T02:24:28.075Z,65.70
2018-07-23T02:26:59.865Z,66.60
2018-07-23T02:29:31.521Z,68.05
2018-07-23T02:32:03.272Z,68.17
2018-07-23T02:34:34.878Z,68.85
2018-07-23T02:37:06.738Z,68.61
2018-07-23T02:39:38.562Z,69.33
2018-07-23T02:42:10.088Z,68.20
2018-07-23T02:44:41.496Z,67.70
2018-07-23T02:47:13.716Z,68.85
2018-07-23T02:49:45.575Z,67.43
2018-07-23T02:52:17.271Z,68.66
2018-07-23T02:54:49.052Z,69.53
2018-07-23T02:57:20.755Z,68.62
2018-07-23T02:59:52.498Z,67.91
2018-07-23T03:02:24.297Z,67.65
2018-07-23T03:04:55.929Z,67.85
2018-07-23T03:07:27.755Z,69.19
2018-07-23T03:09:59.450Z,67.98
2018-07-23T03:12:31.167Z,67.83
2018-07-23T03:15:03.071Z,68.90
2018-07-23T03:17:34.793Z,67.27
2018-07-23T03:20:06.745Z,67.43
2018-07-23T03:22:38.532Z,68.12
2018-07-23T03:25:20.906Z,69.64
2018-07-23T03:27:52.699Z,69.03
2018-07-23T03:30:24.478Z,66.60
2018-07-23T03:32:56.162Z,65.36
2018-07-23T03:35:27.967Z,67.42
2018-07-23T03:38:00.740Z,66.74
2018-07-23T03:40:32.498Z,67.21
2018-07-23T03:43:04.266Z,68.59
2018-07-23T03:45:35.922Z,69.29
2018-07-23T03:48:07.999Z,69.98
2018-07-23T03:50:39.610Z,70.87
2018-07-23T03:53:11.609Z,69.41
2018-07-23T03:55:43.386Z,70.66
2018-07-23T03:58:15.497Z,70.98
2018-07-23T04:00:47.132Z,71.49
2018-07-23T04:03:18.927Z,70.81
2018-07-23T04:05:50.369Z,71.18
2018-07-23T04:08:22.382Z,71.41
2018-07-23T04:10:54.004Z,70.73
2018-07-23T04:13:25.833Z,70.41
2018-07-23T04:15:57.901Z,70.08
2018-07-23T04:18:29.724Z,70.15
2018-07-23T04:21:01.146Z,70.31
2018-07-23T04:23:32.996Z,70.21
2018-07-23T04:26:04.703Z,71.69
2018-07-23T04:28:36.260Z,71.68
2018-07-23T04:31:08.221Z,72.38
2018-07-23T04:33:40.074Z,71.87
2018-07-23T04:36:11.692Z,73.18
2018-07-23T04:38:44.009Z,71.14
2018-07-23T04:41:15.403Z,73.34
2018-07-23T04:43:48.138Z,71.97
2018-07-23T04:46:20.184Z,59.54
2018-07-23T04:48:52.020Z,67.33
2018-07-23T04:51:23.707Z,72.75
2018-07-23T04:53:55.690Z,74.27
2018-07-23T04:56:27.261Z,74.10
2018-07-23T04:58:59.244Z,74.67
2018-07-23T05:01:30.970Z,73.49
2018-07-23T05:04:03.053Z,73.91
2018-07-23T05:06:35.009Z,73.44
2018-07-23T05:09:09.186Z,73.09
2018-07-23T05:11:41.320Z,74.09
2018-07-23T05:14:27.174Z,74.33
2018-07-23T05:16:59.231Z,74.41
2018-07-23T05:19:31.484Z,74.34
2018-07-23T05:22:03.584Z,74.02
2018-07-23T05:24:35.625Z,73.93
2018-07-23T05:27:07.650Z,74.06
2018-07-23T05:29:39.950Z,75.08
2018-07-23T05:32:12.629Z,74.70
2018-07-23T05:34:44.780Z,74.64
2018-07-23T05:37:18.119Z,74.68
2018-07-23T05:39:50.903Z,74.16
2018-07-23T05:42:23.414Z,75.12
2018-07-23T05:44:55.627Z,74.25
2018-07-23T05:47:27.553Z,74.33
2018-07-23T05:49:59.640Z,73.77
2018-07-23T05:52:31.735Z,74.42
2018-07-23T05:55:04.086Z,70.34
2018-07-23T05:57:36.340Z,72.12
2018-07-23T06:00:09.520Z,73.19
2018-07-23T06:02:41.534Z,74.67
2018-07-23T06:05:13.757Z,75.08
2018-07-23T06:07:46.018Z,75.03
2018-07-23T06:10:18.061Z,74.47
2018-07-23T06:12:50.190Z,74.93
2018-07-23T06:15:22.149Z,74.17
2018-07-23T06:17:54.662Z,73.62
2018-07-23T06:20:27.137Z,69.60
2018-07-23T06:22:59.158Z,72.45
2018-07-23T06:25:31.329Z,73.42
2018-07-23T06:28:03.751Z,74.43
2018-07-23T06:30:36.011Z,74.00
2018-07-23T06:33:08.310Z,74.16
2018-07-23T06:35:41.071Z,74.41
2018-07-23T06:38:13.208Z,74.90
2018-07-23T06:40:46.736Z,74.56
2018-07-23T06:43:18.998Z,74.43
2018-07-23T06:45:51.917Z,74.42
2018-07-23T06:48:24.081Z,74.26
2018-07-23T06:50:56.192Z,73.56
2018-07-23T06:53:28.187Z,72.97
2018-07-23T06:56:00.889Z,73.30
2018-07-23T06:58:33.479Z,72.67
2018-07-23T07:01:05.748Z,73.06
2018-07-23T07:03:38.526Z,72.94
2018-07-23T07:06:10.974Z,72.03
2018-07-23T07:08:43.069Z,72.12
2018-07-23T07:11:16.233Z,72.50
2018-07-23T07:13:48.623Z,72.29
2018-07-23T07:16:21.460Z,72.18
2018-07-23T07:18:53.688Z,72.07
2018-07-23T07:21:26.300Z,72.03
2018-07-23T07:23:58.526Z,71.38
2018-07-23T07:26:31.674Z,71.48
2018-07-23T07:29:04.137Z,72.31
2018-07-23T07:31:37.010Z,72.22
2018-07-23T07:34:09.644Z,71.69
2018-07-23T07:36:41.938Z,72.22
2018-07-23T07:39:14.771Z,71.58
2018-07-23T07:41:47.860Z,71.58
2018-07-23T07:44:20.058Z,71.76
2018-07-23T07:46:52.710Z,72.44
2018-07-23T07:49:24.943Z,71.86
2018-07-23T07:51:56.823Z,71.03
2018-07-23T07:56:59.886Z,72.82
2018-07-23T07:59:32.539Z,72.45
2018-07-23T08:02:05.177Z,72.47
2018-07-23T08:04:37.986Z,72.78
2018-07-23T08:07:10.465Z,72.29
2018-07-23T08:09:42.710Z,72.53
2018-07-23T08:12:16.040Z,71.44
2018-07-23T08:14:48.426Z,69.77
2018-07-23T08:17:20.733Z,71.21
2018-07-23T08:19:53.198Z,70.64
2018-07-23T08:22:26.662Z,71.13
2018-07-23T08:24:58.716Z,70.25
2018-07-23T08:27:31.173Z,69.55
2018-07-23T08:30:04.632Z,70.08
2018-07-23T08:32:37.290Z,70.17
2018-07-23T08:35:09.618Z,70.13
2018-07-23T08:37:42.616Z,69.85
2018-07-23T08:40:15.373Z,70.60
2018-07-23T08:42:48.344Z,69.85
2018-07-23T08:45:20.800Z,71.00
2018-07-23T08:47:53.307Z,70.72
2018-07-23T08:50:26.054Z,69.77
2018-07-23T08:52:59.012Z,69.02
2018-07-23T08:55:32.445Z,69.82
2018-07-23T08:58:04.991Z,69.63
2018-07-23T09:00:37.187Z,68.95
2018-07-23T09:03:09.607Z,69.86
2018-07-23T09:05:42.717Z,71.10
2018-07-23T09:08:15.278Z,69.88
2018-07-23T09:10:48.086Z,70.38
2018-07-23T09:13:21.507Z,68.66
2018-07-23T09:15:54.198Z,68.25
2018-07-23T09:18:26.515Z,68.76
2018-07-23T09:20:59.607Z,67.81
2018-07-23T09:23:31.929Z,68.44
2018-07-23T09:26:05.854Z,67.92
2018-07-23T09:28:38.556Z,68.00
2018-07-23T09:31:11.231Z,68.32
2018-07-23T09:33:43.688Z,67.81
2018-07-23T09:36:16.354Z,67.20
2018-07-23T09:38:54.421Z,66.81
2018-07-23T09:41:27.224Z,66.97
2018-07-23T09:44:00.082Z,67.90
2018-07-23T09:46:32.671Z,67.77
2018-07-23T09:49:05.449Z,67.66
2018-07-23T09:51:38.601Z,66.69
2018-07-23T09:54:11.291Z,66.85
2018-07-23T09:56:44.095Z,67.68
2018-07-23T09:59:16.472Z,66.39
2018-07-23T10:01:48.973Z,64.86
2018-07-23T10:04:21.830Z,65.04
2018-07-23T10:06:55.562Z,65.09
2018-07-23T10:09:28.428Z,65.14
2018-07-23T10:12:00.907Z,63.68
2018-07-23T10:14:33.818Z,64.71
2018-07-23T10:17:06.729Z,66.28
2018-07-23T10:19:39.666Z,66.34
2018-07-23T10:22:12.073Z,65.25
2018-07-23T10:24:45.105Z,65.14
2018-07-23T10:27:17.979Z,65.00
2018-07-23T10:29:50.497Z,64.82
2018-07-23T10:32:23.123Z,65.49
2018-07-23T10:34:56.007Z,64.35
2018-07-23T10:37:28.541Z,64.36
2018-07-23T10:40:01.172Z,65.11
2018-07-23T10:42:33.883Z,65.30
2018-07-23T10:45:07.009Z,64.30
2018-07-23T10:47:39.165Z,65.29
2018-07-23T10:50:11.446Z,62.74
2018-07-23T10:52:44.384Z,64.89
2018-07-23T10:55:16.590Z,64.41
2018-07-23T10:57:48.730Z,64.50
2018-07-23T11:00:22.510Z,63.32
2018-07-23T11:02:55.448Z,64.45
2018-07-23T11:05:27.941Z,65.61
2018-07-23T11:08:00.582Z,64.48
2018-07-23T11:10:33.053Z,64.12
2018-07-23T11:13:06.712Z,63.27
2018-07-23T11:15:39.615Z,57.19
2018-07-23T11:18:12.542Z,55.14
2018-07-23T11:20:45.193Z,52.73
2018-07-23T11:23:17.995Z,53.30
2018-07-23T11:25:50.756Z,53.64
2018-07-23T11:28:24.336Z,54.95
2018-07-23T11:30:57.288Z,54.96
2018-07-23T11:33:30.129Z,57.38
2018-07-23T11:36:02.647Z,58.53
2018-07-23T11:38:35.784Z,58.89
2018-07-23T11:41:08.461Z,58.13
2018-07-23T11:43:41.024Z,59.61
2018-07-23T11:46:24.449Z,59.53
2018-07-23T11:48:46.471Z,58.26
2018-07-23T11:51:19.295Z,57.92
2018-07-23T11:53:52.973Z,57.46
2018-07-23T11:56:25.673Z,56.73
2018-07-23T11:58:58.336Z,57.11
2018-07-23T12:01:30.754Z,57.81
2018-07-23T12:04:10.403Z,59.42
2018-07-23T12:06:37.348Z,59.96
2018-07-23T12:09:12.171Z,60.17
2018-07-23T12:11:45.541Z,60.39
2018-07-23T12:14:18.412Z,58.94
2018-07-23T12:16:51.412Z,60.48
2018-07-23T12:19:23.978Z,60.64
2018-07-23T12:21:56.058Z,60.01
2018-07-23T12:24:29.737Z,59.88
2018-07-23T12:27:02.866Z,60.67
2018-07-23T12:29:35.756Z,59.93
2018-07-23T12:32:08.044Z,61.11
2018-07-23T12:34:40.175Z,60.86
2018-07-23T12:37:12.170Z,61.43
2018-07-23T12:39:44.930Z,61.54
2018-07-23T12:42:17.513Z,60.74
2018-07-23T12:44:50.533Z,62.13
2018-07-23T12:47:22.813Z,62.39
2018-07-23T12:49:55.312Z,61.50
2018-07-23T12:52:27.946Z,62.24
2018-07-23T12:55:00.237Z,61.48
2018-07-23T12:57:34.617Z,62.52
2018-07-23T13:00:07.576Z,62.14
2018-07-23T13:02:39.988Z,61.74
2018-07-23T13:05:12.734Z,56.00
2018-07-23T13:07:47.146Z,61.81
2018-07-23T13:10:19.338Z,62.39
2018-07-23T13:12:52.224Z,63.50
2018-07-23T13:15:24.547Z,64.11
2018-07-23T13:17:58.017Z,63.15
2018-07-23T13:20:31.632Z,64.57
2018-07-23T13:23:04.140Z,64.65
2018-07-23T13:25:36.655Z,64.64
2018-07-23T13:28:09.487Z,64.94
2018-07-23T13:30:48.321Z,64.22
2018-07-23T13:33:21.128Z,64.25
2018-07-23T13:35:52.944Z,61.83
2018-07-23T13:38:25.988Z,64.05
2018-07-23T13:40:58.078Z,63.89
2018-07-23T13:43:31.129Z,64.52
2018-07-23T13:46:03.892Z,62.81
2018-07-23T13:48:38.254Z,63.41
2018-07-23T13:51:10.525Z,63.68
2018-07-23T13:53:43.294Z,64.84
2018-07-23T13:56:15.679Z,64.42
2018-07-23T13:58:48.693Z,64.51
2018-07-23T14:01:21.712Z,64.16
2018-07-23T14:03:55.266Z,64.50
2018-07-23T14:06:27.982Z,65.11
2018-07-23T14:09:00.650Z,64.26
2018-07-23T14:11:33.299Z,65.32
2018-07-23T14:14:06.261Z,65.66
2018-07-23T14:16:40.477Z,64.79
2018-07-23T14:19:14.740Z,65.41
2018-07-23T14:21:49.563Z,66.30
2018-07-23T14:24:21.765Z,65.32
2018-07-23T14:26:54.353Z,60.27
2018-07-23T14:29:27.613Z,58.57
2018-07-23T14:32:00.712Z,57.00
2018-07-23T14:34:33.593Z,57.42
2018-07-23T14:37:05.699Z,59.43
2018-07-23T14:39:38.374Z,62.45
2018-07-23T14:42:12.591Z,62.60
2018-07-23T14:44:45.297Z,63.47
2018-07-23T14:47:24.959Z,65.36
2018-07-23T14:50:13.081Z,65.08
2018-07-23T14:52:46.243Z,65.90
2018-07-23T14:55:18.883Z,65.11
2018-07-23T14:57:51.362Z,65.60
2018-07-23T15:00:24.246Z,66.03
2018-07-23T15:02:56.759Z,66.18
2018-07-23T15:05:29.458Z,66.63
2018-07-23T15:08:02.370Z,66.03
2018-07-23T15:10:34.773Z,66.19
2018-07-23T15:13:07.516Z,65.97
2018-07-23T15:15:41.435Z,67.03
2018-07-23T15:18:13.548Z,66.69
2018-07-23T15:20:46.133Z,65.95
2018-07-23T15:23:18.333Z,66.30
2018-07-23T15:25:51.335Z,67.08
2018-07-23T15:28:23.995Z,66.82
2018-07-23T15:30:57.826Z,66.63
2018-07-23T15:33:33.138Z,66.98
2018-07-23T15:36:05.519Z,66.22
2018-07-23T15:38:37.759Z,66.80
2018-07-23T15:41:11.303Z,66.82
2018-07-23T15:43:43.291Z,66.52
2018-07-23T15:46:16.357Z,65.38
2018-07-23T15:48:49.082Z,63.81
2018-07-23T15:51:22.376Z,62.42
2018-07-23T15:53:55.237Z,61.87
2018-07-23T15:56:28.530Z,57.55
2018-07-23T15:59:01.620Z,56.60
2018-07-23T16:01:34.453Z,57.53
2018-07-23T16:04:07.253Z,56.45
2018-07-23T16:06:40.091Z,55.65
2018-07-23T16:09:15.693Z,55.95
2018-07-23T16:11:48.755Z,57.19
2018-07-23T16:14:21.175Z,57.84
2018-07-23T16:16:55.720Z,56.54
2018-07-23T16:19:27.884Z,58.37
2018-07-23T16:22:00.620Z,59.53
2018-07-23T16:24:33.627Z,59.04
2018-07-23T16:27:06.847Z,59.24
2018-07-23T16:29:40.224Z,59.41
2018-07-23T16:32:14.345Z,58.07
2018-07-23T16:34:49.072Z,56.63
2018-07-23T16:37:22.739Z,56.24
2018-07-23T16:39:56.472Z,56.48
2018-07-23T16:42:30.036Z,56.37
2018-07-23T16:45:04.230Z,56.21
2018-07-23T16:47:40.150Z,57.02
2018-07-23T16:50:13.938Z,56.86
2018-07-23T16:52:47.435Z,57.79
2018-07-23T16:55:22.853Z,58.52
2018-07-23T16:57:56.022Z,58.15
2018-07-23T17:00:28.982Z,58.32
2018-07-23T17:03:01.766Z,58.87
2018-07-23T17:05:35.624Z,58.01
2018-07-23T17:08:09.271Z,58.04
2018-07-23T17:10:43.685Z,57.69
2018-07-23T17:13:18.234Z,57.09
2018-07-23T17:15:52.697Z,57.20
2018-07-23T17:18:26.770Z,58.42
2018-07-23T17:20:59.814Z,57.74
2018-07-23T17:23:32.994Z,56.92
2018-07-23T17:26:07.008Z,57.24
2018-07-23T17:28:40.306Z,56.07
2018-07-23T17:31:13.601Z,58.29
2018-07-23T17:33:46.250Z,57.13
2018-07-23T17:36:18.867Z,56.18
2018-07-23T17:38:53.011Z,57.41
2018-07-23T17:41:26.160Z,56.66
2018-07-23T17:43:59.472Z,56.72
2018-07-23T17:46:32.971Z,56.72
2018-07-23T17:49:05.743Z,56.06
2018-07-23T17:51:38.749Z,53.63
2018-07-23T17:54:11.421Z,55.01
2018-07-23T17:56:43.969Z,53.68
2018-07-23T17:59:17.508Z,54.80
2018-07-23T18:01:52.227Z,55.33
2018-07-23T18:04:24.655Z,55.74
2018-07-23T18:06:56.867Z,55.56
2018-07-23T18:09:29.288Z,55.71
2018-07-23T18:12:02.197Z,53.83
2018-07-23T18:14:35.508Z,54.81
2018-07-23T18:17:09.884Z,54.59
2018-07-23T18:19:42.503Z,53.68
2018-07-23T18:22:14.873Z,53.40
2018-07-23T18:24:47.790Z,55.09
2018-07-23T18:27:20.502Z,54.46
2018-07-23T18:29:53.805Z,54.45
2018-07-23T18:32:26.682Z,54.90
2018-07-23T18:34:59.809Z,54.67
2018-07-23T18:37:32.722Z,54.34
2018-07-23T18:40:05.662Z,55.35
2018-07-23T18:42:39.877Z,55.25
2018-07-23T18:45:12.865Z,55.13
2018-07-23T18:47:46.363Z,56.16
2018-07-23T18:50:21.920Z,55.97
2018-07-23T18:52:55.045Z,55.89
2018-07-23T18:55:29.235Z,55.49
2018-07-23T18:58:02.306Z,55.06
2018-07-23T19:00:35.066Z,54.77
2018-07-23T19:03:08.787Z,54.71
2018-07-23T19:05:41.792Z,56.45
2018-07-23T19:08:14.652Z,55.68
2018-07-23T19:10:48.164Z,55.49
2018-07-23T19:13:20.634Z,56.23
2018-07-23T19:15:53.693Z,56.08
2018-07-23T19:18:26.024Z,56.08
2018-07-23T19:20:58.761Z,56.00
2018-07-23T19:23:31.333Z,55.81
2018-07-23T19:26:03.602Z,56.17
2018-07-23T19:28:36.538Z,55.15
2018-07-23T19:31:09.604Z,55.08
2018-07-23T19:33:42.016Z,55.89
2018-07-23T19:36:14.572Z,55.31
2018-07-23T19:38:47.559Z,56.04
2018-07-23T19:41:20.193Z,55.52
2018-07-23T19:43:53.056Z,55.20
2018-07-23T19:46:26.919Z,53.14
2018-07-23T19:48:59.776Z,53.43
2018-07-23T19:51:32.441Z,51.76
2018-07-23T19:54:05.174Z,52.94
2018-07-23T19:56:38.692Z,53.22
2018-07-23T19:59:11.587Z,54.19
2018-07-23T20:01:43.844Z,54.48
2018-07-23T20:04:16.511Z,55.64
2018-07-23T20:06:49.184Z,55.42
2018-07-23T20:09:22.046Z,56.12
2018-07-23T20:11:54.474Z,57.11
2018-07-23T20:14:26.763Z,55.80
2018-07-23T20:16:59.269Z,56.35
2018-07-23T20:19:31.592Z,56.25
2018-07-23T20:22:03.805Z,57.41
2018-07-23T20:24:35.643Z,57.20
2018-07-23T20:27:07.854Z,56.46
2018-07-23T20:29:40.188Z,57.14
2018-07-23T20:32:12.689Z,56.24
2018-07-23T20:34:44.748Z,54.84
2018-07-23T20:37:17.297Z,55.55
2018-07-23T20:39:49.461Z,55.99
2018-07-23T20:42:21.952Z,55.02
2018-07-23T20:44:54.155Z,55.63
2018-07-23T20:47:26.403Z,56.61
2018-07-23T20:49:58.568Z,56.23
2018-07-23T20:52:30.883Z,56.33
2018-07-23T20:55:03.001Z,55.41
2018-07-23T20:57:35.745Z,56.19
2018-07-23T21:00:09.438Z,55.07
2018-07-23T21:02:41.335Z,55.70
2018-07-23T21:05:13.168Z,56.31
2018-07-23T21:07:45.396Z,55.88
2018-07-23T21:10:17.428Z,56.34
2018-07-23T21:12:49.632Z,56.06
2018-07-23T21:15:21.668Z,55.71
2018-07-23T21:17:54.272Z,55.42
2018-07-23T21:20:26.320Z,56.97
2018-07-23T21:22:58.431Z,56.93
2018-07-23T21:25:30.463Z,55.22
2018-07-23T21:28:02.314Z,55.85
2018-07-23T21:30:34.401Z,56.01
2018-07-23T21:33:06.329Z,56.53
2018-07-23T21:35:38.175Z,54.49
2018-07-23T21:38:10.413Z,55.45
2018-07-23T21:40:42.069Z,54.75
2018-07-23T21:43:13.869Z,54.37
2018-07-23T21:45:46.013Z,54.87
2018-07-23T21:48:17.751Z,54.98
2018-07-23T21:50:49.675Z,54.94
2018-07-23T21:53:21.610Z,55.55
2018-07-23T21:55:53.448Z,54.02
2018-07-23T21:58:26.254Z,54.34
2018-07-23T22:00:58.139Z,53.92
2018-07-23T22:03:30.062Z,54.59
2018-07-23T22:06:01.939Z,55.80
2018-07-23T22:08:34.097Z,55.04
2018-07-23T22:11:06.035Z,54.65
2018-07-23T22:13:38.017Z,55.25
2018-07-23T22:16:09.576Z,54.55
2018-07-23T22:18:41.554Z,54.25
2018-07-23T22:21:13.786Z,54.33
2018-07-23T22:23:45.900Z,54.20
2018-07-23T22:26:17.939Z,54.89
2018-07-23T22:28:49.677Z,54.74
2018-07-23T22:31:21.501Z,54.21
2018-07-23T22:33:53.226Z,54.88
2018-07-23T22:36:25.248Z,54.09
2018-07-23T22:38:57.158Z,54.91
2018-07-23T22:41:29.114Z,55.33
2018-07-23T22:44:00.772Z,53.99
2018-07-23T22:46:32.884Z,53.71
2018-07-23T22:49:04.803Z,53.49
2018-07-23T22:51:36.357Z,54.09
2018-07-23T22:54:08.110Z,53.82
2018-07-23T22:56:39.981Z,54.34
2018-07-23T22:59:12.189Z,53.11
2018-07-23T23:01:43.872Z,54.10
2018-07-23T23:04:16.270Z,53.19
2018-07-23T23:06:48.355Z,53.15
2018-07-23T23:09:20.200Z,54.96
2018-07-23T23:11:51.996Z,53.52
2018-07-23T23:14:23.831Z,53.97
2018-07-23T23:16:55.512Z,53.75
2018-07-23T23:19:27.598Z,53.82
2018-07-23T23:21:59.563Z,53.77
2018-07-23T23:24:31.254Z,54.16
2018-07-23T23:27:03.320Z,56.15
2018-07-23T23:29:35.261Z,55.28
2018-07-23T23:32:07.070Z,55.23
2018-07-23T23:34:39.211Z,55.95
2018-07-23T23:37:11.300Z,56.01
2018-07-23T23:39:43.532Z,56.73
2018-07-23T23:42:15.400Z,55.44
2018-07-23T23:44:47.197Z,56.50
2018-07-23T23:47:18.848Z,55.28
2018-07-23T23:49:50.668Z,56.19
2018-07-23T23:52:22.627Z,55.89
2018-07-23T23:54:54.597Z,55.88
2018-07-23T23:57:26.523Z,56.65
2018-07-23T23:59:59.091Z,57.75
